Time;durP1;ratioP1;P1;durP2;ratioP2;P2;SDS_P1;SDS_P2;PMS_P1;PMS_P2;Temp;Humidity;BMP_temperature;BMP_pressure;BME280_temperature;BME280_humidity;BME280_pressure;Samples;Min_cycle;Max_cycle;Signal;HPM_P1;HPM_P2
2021/12/09 00:00:16;;;;;;;11.50;5.70;;;4.30;99.90;;;;;;5072535;28;20068;-88
2021/12/09 00:02:42;;;;;;;11.45;5.80;;;2.70;99.90;;;;;;5071361;28;20480;-87
2021/12/09 00:05:14;;;;;;;11.65;5.78;;;2.70;99.90;;;;;;5056136;28;20036;-87
2021/12/09 00:07:42;;;;;;;14.93;6.22;;;3.70;99.90;;;;;;5054989;28;20076;-88
2021/12/09 00:10:10;;;;;;;15.93;6.15;;;4.30;99.90;;;;;;5055274;28;20047;-88
2021/12/09 00:12:36;;;;;;;11.70;5.38;;;2.40;99.90;;;;;;5055230;28;20043;-87
2021/12/09 00:15:03;;;;;;;13.25;5.80;;;2.70;99.90;;;;;;5038176;28;20036;-87
2021/12/09 00:17:28;;;;;;;10.85;5.93;;;2.70;99.90;;;;;;5038166;28;20040;-88
2021/12/09 00:19:54;;;;;;;10.55;5.32;;;2.70;99.90;;;;;;5054837;28;20047;-88
2021/12/09 00:22:20;;;;;;;15.75;5.78;;;2.60;99.90;;;;;;5071505;28;20047;-88
2021/12/09 00:24:45;;;;;;;15.98;5.88;;;2.50;99.90;;;;;;5054033;28;20135;-88
2021/12/09 00:27:11;;;;;;;13.93;6.07;;;2.50;99.90;;;;;;5055093;28;20407;-88
2021/12/09 00:29:37;;;;;;;11.63;6.70;;;2.40;99.90;;;;;;5037878;28;20092;-87
2021/12/09 00:32:03;;;;;;;10.30;5.88;;;3.10;99.90;;;;;;5071614;28;20040;-88
2021/12/09 00:34:32;;;;;;;14.05;6.50;;;2.40;99.90;;;;;;5053829;28;20369;-88
2021/12/09 00:37:14;;;;;;;17.10;7.03;;;3.60;99.90;;;;;;5037673;28;20519;-88
2021/12/09 00:39:41;;;;;;;11.85;6.28;;;2.30;99.90;;;;;;5052768;28;20036;-88
2021/12/09 00:42:09;;;;;;;15.88;7.03;;;3.10;99.90;;;;;;5036481;28;20032;-88
2021/12/09 00:44:35;;;;;;;15.35;7.10;;;2.30;99.90;;;;;;5053504;28;20127;-88
2021/12/09 00:47:01;;;;;;;13.25;7.07;;;3.30;99.90;;;;;;5054426;28;20485;-88
2021/12/09 00:49:30;;;;;;;11.18;6.05;;;2.20;99.90;;;;;;5054156;28;20035;-88
2021/12/09 00:51:56;;;;;;;13.02;6.63;;;3.80;99.90;;;;;;5054980;28;20094;-89
2021/12/09 00:54:22;;;;;;;14.07;7.35;;;2.20;99.90;;;;;;5055349;28;20115;-88
2021/12/09 00:56:48;;;;;;;13.35;7.13;;;3.80;99.90;;;;;;5018454;28;20068;-88
2021/12/09 00:59:14;;;;;;;14.65;7.70;;;3.50;99.90;;;;;;5038810;28;20111;-88
2021/12/09 01:01:40;;;;;;;19.20;8.70;;;3.30;99.90;;;;;;5068929;28;20043;-88
2021/12/09 01:04:06;;;;;;;17.48;7.95;;;3.80;99.90;;;;;;5038453;28;20033;-88
2021/12/09 01:06:31;;;;;;;15.77;7.65;;;2.20;99.90;;;;;;5054594;28;20098;-88
2021/12/09 01:08:57;;;;;;;19.35;8.43;;;2.20;99.90;;;;;;5020731;28;20484;-88
2021/12/09 01:11:23;;;;;;;18.10;8.07;;;2.10;99.90;;;;;;5054475;28;20047;-88
2021/12/09 01:13:49;;;;;;;15.65;7.55;;;2.10;99.90;;;;;;5054119;28;20036;-88
2021/12/09 01:16:15;;;;;;;16.05;8.20;;;3.50;99.90;;;;;;5071703;28;20036;-88
2021/12/09 01:18:41;;;;;;;15.82;7.53;;;3.20;99.90;;;;;;5054036;28;20044;-88
2021/12/09 01:21:08;;;;;;;16.55;8.65;;;2.80;99.90;;;;;;5054207;28;20039;-88
2021/12/09 01:23:35;;;;;;;18.65;8.88;;;2.20;99.90;;;;;;5041652;28;20040;-88
2021/12/09 01:26:04;;;;;;;16.98;7.82;;;3.70;99.90;;;;;;5056012;28;20064;-88
2021/12/09 01:28:35;;;;;;;18.00;8.35;;;2.10;99.90;;;;;;5058223;28;20056;-88
2021/12/09 01:31:03;;;;;;;22.23;9.05;;;2.00;99.90;;;;;;5074778;28;20040;-87
2021/12/09 01:33:30;;;;;;;18.13;8.60;;;3.60;99.90;;;;;;5074272;28;20040;-88
2021/12/09 01:35:57;;;;;;;16.10;8.98;;;2.10;99.90;;;;;;5074013;28;20121;-88
2021/12/09 01:38:24;;;;;;;;;;;2.70;99.90;;;;;;5058243;28;20033;-88
2021/12/09 01:40:50;;;;;;;14.63;7.82;;;3.10;99.90;;;;;;5074287;28;20364;-88
2021/12/09 01:43:16;;;;;;;16.95;9.30;;;2.10;99.90;;;;;;5058001;28;20078;-88
2021/12/09 01:45:42;;;;;;;16.40;8.23;;;3.60;99.90;;;;;;5057308;28;20041;-88
2021/12/09 01:48:08;;;;;;;19.48;8.38;;;3.80;99.90;;;;;;5057940;28;20040;-88
2021/12/09 01:50:35;;;;;;;19.25;8.63;;;3.50;99.90;;;;;;5057361;28;20037;-87
2021/12/09 01:53:07;;;;;;;19.70;9.25;;;2.30;99.90;;;;;;5040557;28;20032;-88
2021/12/09 01:55:33;;;;;;;18.33;9.55;;;3.60;99.90;;;;;;5105867;28;20045;-87
2021/12/09 01:58:00;;;;;;;16.35;9.27;;;2.10;99.90;;;;;;5075008;28;20043;-88
2021/12/09 02:00:29;;;;;;;16.98;8.65;;;2.00;99.90;;;;;;5057775;28;20037;-88
2021/12/09 02:02:56;;;;;;;19.77;9.38;;;2.10;99.90;;;;;;5073729;28;20040;-88
2021/12/09 02:05:23;;;;;;;19.67;9.13;;;2.10;99.90;;;;;;5057950;28;20032;-88
2021/12/09 02:07:49;;;;;;;21.38;9.00;;;2.10;99.90;;;;;;5041361;28;20044;-89
2021/12/09 02:10:17;;;;;;;19.27;9.20;;;2.00;99.90;;;;;;5057307;28;20040;-89
2021/12/09 02:12:45;;;;;;;18.85;9.38;;;2.40;99.90;;;;;;5057301;28;20510;-88
2021/12/09 02:15:11;;;;;;;18.35;9.82;;;2.10;99.90;;;;;;5073529;28;20535;-88
2021/12/09 02:17:37;;;;;;;17.20;9.43;;;2.10;99.90;;;;;;5039952;28;20119;-88
2021/12/09 02:20:05;;;;;;;17.67;9.15;;;3.60;99.90;;;;;;5040387;28;20119;-88
2021/12/09 02:22:31;;;;;;;18.88;10.30;;;2.10;99.90;;;;;;5056927;28;20044;-87
2021/12/09 02:24:57;;;;;;;18.52;10.32;;;2.50;99.90;;;;;;5020881;28;20095;-88
2021/12/09 02:27:25;;;;;;;20.58;10.70;;;2.60;99.90;;;;;;5105192;28;20033;-87
2021/12/09 02:29:53;;;;;;;18.98;9.27;;;3.00;99.90;;;;;;5056671;28;20514;-88
2021/12/09 02:32:19;;;;;;;20.38;11.00;;;2.10;99.90;;;;;;5040818;28;20436;-88
2021/12/09 02:34:45;;;;;;;17.30;10.07;;;2.10;99.90;;;;;;5055243;28;20038;-88
2021/12/09 02:37:13;;;;;;;19.77;10.45;;;2.10;99.90;;;;;;5073712;28;20115;-88
2021/12/09 02:39:40;;;;;;;24.75;10.75;;;2.10;99.90;;;;;;5057090;28;20349;-88
2021/12/09 02:42:07;;;;;;;19.95;9.27;;;1.90;99.90;;;;;;5074300;28;20512;-88
2021/12/09 02:44:33;;;;;;;21.55;10.65;;;2.00;99.90;;;;;;5057152;28;20318;-88
2021/12/09 02:46:59;;;;;;;19.90;10.40;;;2.00;99.90;;;;;;5073269;28;20044;-89
2021/12/09 02:49:28;;;;;;;16.75;10.48;;;3.20;99.90;;;;;;5040441;28;20534;-87
2021/12/09 02:51:56;;;;;;;19.92;10.65;;;1.90;99.90;;;;;;5073035;28;20044;-88
2021/12/09 02:54:23;;;;;;;20.02;11.02;;;1.90;99.90;;;;;;5056807;28;20041;-88
2021/12/09 02:56:51;;;;;;;17.08;10.10;;;2.60;99.90;;;;;;5073560;28;20036;-88
2021/12/09 02:59:18;;;;;;;21.48;10.18;;;2.50;99.90;;;;;;5073527;28;20040;-88
2021/12/09 03:02:05;;;;;;;16.63;10.10;;;3.40;99.90;;;;;;5056696;28;20086;-88
2021/12/09 03:04:39;;;;;;;21.83;10.35;;;1.80;99.90;;;;;;5056294;28;20079;-88
2021/12/09 03:07:15;;;;;;;16.38;10.18;;;1.70;99.90;;;;;;5055972;28;20060;-88
2021/12/09 03:09:51;;;;;;;22.10;11.10;;;1.70;99.90;;;;;;5054592;28;20032;-89
2021/12/09 03:12:26;;;;;;;25.50;11.32;;;2.40;99.90;;;;;;5073467;28;20101;-88
2021/12/09 03:14:52;;;;;;;17.52;10.45;;;3.20;99.90;;;;;;5056033;28;20040;-89
2021/12/09 03:17:19;;;;;;;22.85;11.10;;;2.60;99.90;;;;;;5039843;28;20098;-89
2021/12/09 03:19:45;;;;;;;;;;;1.60;99.90;;;;;;5056190;28;20036;-88
2021/12/09 03:22:11;;;;;;;20.67;11.02;;;1.60;99.90;;;;;;5055927;28;19939;-89
2021/12/09 03:24:37;;;;;;;19.50;10.68;;;1.60;99.90;;;;;;5056002;28;20033;-89
2021/12/09 03:27:04;;;;;;;17.10;11.02;;;1.60;99.90;;;;;;5055500;28;20066;-89
2021/12/09 03:29:30;;;;;;;23.42;11.52;;;1.70;99.90;;;;;;5055423;28;20056;-88
2021/12/09 03:32:03;;;;;;;22.88;12.02;;;2.40;99.90;;;;;;5072540;28;20098;-88
2021/12/09 03:34:31;;;;;;;22.05;10.85;;;1.60;99.90;;;;;;5072747;28;20492;-88
2021/12/09 03:37:02;;;;;;;19.38;11.40;;;1.50;99.90;;;;;;5055903;28;20063;-89
2021/12/09 03:39:33;;;;;;;26.30;11.38;;;2.20;99.90;;;;;;5053931;28;20071;-89
2021/12/09 03:42:00;;;;;;;20.42;10.90;;;1.60;99.90;;;;;;5055826;28;20409;-89
2021/12/09 03:44:28;;;;;;;20.50;11.48;;;1.50;99.90;;;;;;5071304;28;20032;-88
2021/12/09 03:46:55;;;;;;;21.55;10.65;;;3.20;99.90;;;;;;5055742;28;20446;-88
2021/12/09 03:49:23;;;;;;;26.15;11.27;;;3.00;99.90;;;;;;5072520;28;20499;-88
2021/12/09 03:51:50;;;;;;;24.88;11.85;;;1.90;99.90;;;;;;5072054;28;20546;-89
2021/12/09 03:54:15;;;;;;;;;;;2.90;99.90;;;;;;5056427;28;20106;-89
2021/12/09 03:56:41;;;;;;;27.88;12.43;;;2.30;99.90;;;;;;5072921;28;19920;-88
2021/12/09 03:59:09;;;;;;;20.17;11.93;;;1.70;99.90;;;;;;5039761;28;20389;-89
2021/12/09 04:01:38;;;;;;;23.15;12.20;;;1.50;99.90;;;;;;5056553;28;20040;-88
2021/12/09 04:04:04;;;;;;;22.52;12.10;;;1.50;99.90;;;;;;5073311;28;20416;-88
2021/12/09 04:06:31;;;;;;;20.38;11.40;;;1.10;99.90;;;;;;5040874;28;20036;-88
2021/12/09 04:08:59;;;;;;;22.70;11.02;;;2.10;99.90;;;;;;5055875;28;20033;-89
2021/12/09 04:11:25;;;;;;;23.13;12.48;;;2.50;99.90;;;;;;5072664;28;20040;-88
2021/12/09 04:13:51;;;;;;;21.00;11.55;;;2.70;99.90;;;;;;5038995;28;20119;-89
2021/12/09 04:16:17;;;;;;;21.70;11.48;;;1.50;99.90;;;;;;5039172;28;20052;-89
2021/12/09 04:18:44;;;;;;;22.63;12.23;;;2.30;99.90;;;;;;5022403;28;20036;-89
2021/12/09 04:21:10;;;;;;;22.67;11.77;;;1.50;99.90;;;;;;5055678;28;20112;-88
2021/12/09 04:23:37;;;;;;;26.98;12.18;;;3.20;99.90;;;;;;5038934;28;20548;-88
2021/12/09 04:26:03;;;;;;;28.20;13.18;;;1.40;99.90;;;;;;5038542;28;20469;-89
2021/12/09 04:28:29;;;;;;;23.85;12.60;;;1.40;99.90;;;;;;5071462;28;20088;-89
2021/12/09 04:30:55;;;;;;;;;;;1.80;99.90;;;;;;5039030;28;20090;-88
2021/12/09 04:33:21;;;;;;;25.95;12.52;;;1.40;99.90;;;;;;5055148;28;20330;-88
2021/12/09 04:35:46;;;;;;;22.83;12.85;;;2.80;99.90;;;;;;5054766;28;20036;-88
2021/12/09 04:38:12;;;;;;;22.77;13.05;;;2.40;99.90;;;;;;5054994;28;20044;-89
2021/12/09 04:40:38;;;;;;;23.65;12.52;;;1.70;99.90;;;;;;5038381;28;20044;-88
2021/12/09 04:43:04;;;;;;;25.75;12.88;;;1.20;99.90;;;;;;5054871;28;20615;-88
2021/12/09 04:45:33;;;;;;;29.35;13.77;;;1.30;99.90;;;;;;5022114;28;20393;-88
2021/12/09 04:47:59;;;;;;;25.63;13.80;;;1.20;99.90;;;;;;5038849;28;20040;-88
2021/12/09 04:50:25;;;;;;;28.10;12.88;;;1.20;99.90;;;;;;5071411;28;20086;-89
2021/12/09 04:52:51;;;;;;;24.27;12.75;;;1.20;99.90;;;;;;5054933;28;20044;-89
2021/12/09 04:55:17;;;;;;;31.05;13.73;;;2.10;99.90;;;;;;5038542;28;20032;-88
2021/12/09 04:57:43;;;;;;;26.98;13.93;;;1.20;99.90;;;;;;5058060;28;20028;-88
2021/12/09 05:00:12;;;;;;;26.23;14.18;;;1.10;99.90;;;;;;5024061;28;20459;-88
2021/12/09 05:05:04;;;;;;;25.75;12.02;;;1.20;99.90;;;;;;5057305;28;20533;-84
2021/12/09 05:07:30;;;;;;;24.65;14.07;;;1.20;99.90;;;;;;5039903;28;20040;-84
2021/12/09 05:09:56;;;;;;;27.23;13.73;;;1.20;99.90;;;;;;5056949;28;20100;-84
2021/12/09 05:12:21;;;;;;;28.05;14.13;;;1.20;99.90;;;;;;5040444;28;20508;-83
2021/12/09 05:14:48;;;;;;;35.78;14.13;;;1.20;99.90;;;;;;5039151;28;20033;-83
2021/12/09 05:17:16;;;;;;;25.42;13.77;;;1.10;99.90;;;;;;5073504;28;20032;-82
2021/12/09 05:19:43;;;;;;;27.98;14.02;;;1.10;99.90;;;;;;5054894;28;20119;-82
2021/12/09 05:22:09;;;;;;;30.13;14.15;;;1.10;99.90;;;;;;5040295;28;20051;-82
2021/12/09 05:24:36;;;;;;;24.25;12.85;;;1.50;99.90;;;;;;5074029;28;20072;-79
2021/12/09 05:27:02;;;;;;;25.88;13.40;;;1.10;99.90;;;;;;5040601;28;20579;-81
2021/12/09 05:29:33;;;;;;;;;;;1.10;99.90;;;;;;5041040;28;20064;-83
2021/12/09 05:32:08;;;;;;;26.08;14.50;;;2.70;99.90;;;;;;5073474;28;19964;-82
2021/12/09 05:34:42;;;;;;;26.75;14.73;;;1.10;99.90;;;;;;5073145;28;20415;-81
2021/12/09 05:37:10;;;;;;;29.42;15.75;;;1.00;99.90;;;;;;5073173;28;20496;-80
2021/12/09 05:39:37;;;;;;;28.67;14.60;;;1.00;99.90;;;;;;5073394;28;20400;-81
2021/12/09 05:42:05;;;;;;;30.63;14.15;;;1.10;99.90;;;;;;5055815;28;20040;-81
2021/12/09 05:44:32;;;;;;;29.67;15.00;;;1.00;99.90;;;;;;5056626;28;20132;-81
2021/12/09 05:46:59;;;;;;;28.77;13.77;;;2.60;99.90;;;;;;5073435;28;20452;-79
2021/12/09 05:49:25;;;;;;;29.88;15.20;;;1.00;99.90;;;;;;5056108;28;20403;-79
2021/12/09 05:51:51;;;;;;;33.05;14.75;;;2.50;99.90;;;;;;5073598;28;20115;-81
2021/12/09 05:54:17;;;;;;;30.27;15.15;;;1.80;99.90;;;;;;5039479;28;20491;-78
2021/12/09 05:56:43;;;;;;;29.23;14.60;;;1.80;99.90;;;;;;5071896;28;20032;-79
2021/12/09 05:59:10;;;;;;;29.17;15.13;;;0.90;99.90;;;;;;5055673;28;20043;-80
2021/12/09 06:01:39;;;;;;;23.85;14.15;;;2.00;99.90;;;;;;5055823;28;20025;-80
2021/12/09 06:04:05;;;;;;;26.85;14.93;;;2.60;99.90;;;;;;5069531;28;20119;-79
2021/12/09 06:06:32;;;;;;;26.02;14.25;;;1.50;99.90;;;;;;5055258;28;20051;-79
2021/12/09 06:08:58;;;;;;;28.77;15.02;;;1.00;99.90;;;;;;5055229;28;20081;-79
2021/12/09 06:11:26;;;;;;;32.35;14.43;;;1.00;99.90;;;;;;5054978;28;20045;-79
2021/12/09 06:13:53;;;;;;;32.38;14.95;;;0.90;99.90;;;;;;5055404;28;20115;-80
2021/12/09 06:16:18;;;;;;;;;;;0.90;99.90;;;;;;5072631;28;20044;-80
2021/12/09 06:18:45;;;;;;;24.58;13.98;;;0.90;99.90;;;;;;5072280;28;19916;-79
2021/12/09 06:21:10;;;;;;;30.02;16.10;;;0.90;99.90;;;;;;5054954;28;20067;-79
2021/12/09 06:23:37;;;;;;;29.13;14.05;;;0.80;99.90;;;;;;5071588;28;20069;-80
2021/12/09 06:26:05;;;;;;;28.08;15.45;;;0.80;99.90;;;;;;5052951;28;20040;-80
2021/12/09 06:28:31;;;;;;;33.35;15.30;;;1.20;99.90;;;;;;5071523;28;20076;-81
2021/12/09 06:30:57;;;;;;;27.55;15.30;;;2.30;99.90;;;;;;5071715;28;20051;-80
2021/12/09 06:33:23;;;;;;;26.83;15.43;;;1.00;99.90;;;;;;5038091;28;20463;-80
2021/12/09 06:35:49;;;;;;;30.83;15.00;;;1.80;99.90;;;;;;5055036;28;20119;-80
2021/12/09 06:38:16;;;;;;;33.90;15.43;;;2.30;99.90;;;;;;5038163;28;20402;-80
2021/12/09 06:40:45;;;;;;;27.00;14.65;;;2.30;99.90;;;;;;5022269;28;20036;-81
2021/12/09 06:43:12;;;;;;;25.25;14.48;;;0.80;99.90;;;;;;5069271;28;20036;-80
2021/12/09 06:45:39;;;;;;;27.70;15.05;;;2.50;99.90;;;;;;5054653;28;20044;-80
2021/12/09 06:48:06;;;;;;;32.17;15.68;;;0.70;99.90;;;;;;5071406;28;20093;-79
2021/12/09 06:50:31;;;;;;;42.38;15.68;;;1.60;99.90;;;;;;5054201;28;20106;-79
2021/12/09 06:52:57;;;;;;;33.15;14.95;;;0.90;99.90;;;;;;5038279;28;20040;-81
2021/12/09 06:55:26;;;;;;;27.40;14.50;;;0.90;99.90;;;;;;5071090;28;20032;-81
2021/12/09 06:57:52;;;;;;;28.52;14.57;;;0.70;99.90;;;;;;5069215;28;20060;-81
2021/12/09 07:00:25;;;;;;;29.00;15.02;;;1.30;99.90;;;;;;5054177;28;20071;-81
2021/12/09 07:02:51;;;;;;;32.33;14.38;;;0.80;99.90;;;;;;5071553;28;20478;-79
2021/12/09 07:05:19;;;;;;;26.98;14.13;;;0.70;99.90;;;;;;5070892;28;20044;-80
2021/12/09 07:07:45;;;;;;;28.40;15.68;;;0.70;99.90;;;;;;5052252;28;20078;-80
2021/12/09 07:10:13;;;;;;;31.80;15.02;;;0.60;99.90;;;;;;5070677;28;20429;-79
2021/12/09 07:12:39;;;;;;;29.52;14.95;;;0.60;99.90;;;;;;5070682;28;20049;-80
2021/12/09 07:15:08;;;;;;;32.35;15.98;;;0.60;99.90;;;;;;5070975;28;20040;-80
2021/12/09 07:17:35;;;;;;;34.15;15.68;;;0.60;99.90;;;;;;5070353;28;20122;-80
2021/12/09 07:20:05;;;;;;;27.20;14.27;;;0.60;99.90;;;;;;5054036;28;20040;-80
2021/12/09 07:22:31;;;;;;;32.80;14.98;;;0.60;99.90;;;;;;5053597;28;20044;-80
2021/12/09 07:24:57;;;;;;;27.67;14.55;;;1.70;99.90;;;;;;5054122;28;20032;-80
2021/12/09 07:27:22;;;;;;;31.98;15.50;;;0.70;99.90;;;;;;5054347;28;20044;-80
2021/12/09 07:29:48;;;;;;;30.23;14.70;;;0.70;99.90;;;;;;5053643;28;20075;-80
2021/12/09 07:32:14;;;;;;;24.75;11.85;;;1.60;99.90;;;;;;5070118;28;20053;-80
2021/12/09 07:34:40;;;;;;;28.08;14.68;;;0.70;99.90;;;;;;5070614;28;20037;-80
2021/12/09 07:37:06;;;;;;;31.38;14.82;;;0.70;99.90;;;;;;5052852;28;20456;-80
2021/12/09 07:39:33;;;;;;;30.48;15.05;;;0.70;99.90;;;;;;5035514;28;20259;-80
2021/12/09 07:42:02;;;;;;;33.17;14.20;;;0.70;99.90;;;;;;5069028;28;20489;-80
2021/12/09 07:44:30;;;;;;;28.17;14.60;;;1.40;99.90;;;;;;5068381;28;20040;-80
2021/12/09 07:46:57;;;;;;;36.35;15.18;;;0.70;99.90;;;;;;5070293;28;20113;-80
2021/12/09 07:49:24;;;;;;;37.80;15.70;;;0.70;99.90;;;;;;5053547;28;20059;-80
2021/12/09 07:51:50;;;;;;;33.30;15.23;;;0.70;99.90;;;;;;5070223;28;20036;-80
2021/12/09 07:54:17;;;;;;;32.08;14.75;;;0.60;99.90;;;;;;5053134;28;20111;-79
2021/12/09 07:56:43;;;;;;;34.15;15.57;;;0.60;99.90;;;;;;5020376;28;20040;-80
2021/12/09 07:59:11;;;;;;;28.95;14.38;;;1.10;99.90;;;;;;5053635;28;20054;-80
2021/12/09 08:01:40;;;;;;;33.58;15.25;;;0.70;99.90;;;;;;5020641;28;20040;-80
2021/12/09 08:04:07;;;;;;;34.85;14.48;;;0.70;99.90;;;;;;5053317;28;20071;-79
2021/12/09 08:06:34;;;;;;;34.20;14.30;;;0.70;99.90;;;;;;5069728;28;20041;-79
2021/12/09 08:09:00;;;;;;;30.27;14.88;;;0.70;99.90;;;;;;5053482;28;20036;-80
2021/12/09 08:11:26;;;;;;;31.45;15.35;;;0.70;99.90;;;;;;5052952;28;20040;-80
2021/12/09 08:13:52;;;;;;;30.60;15.13;;;0.70;99.90;;;;;;5069785;28;20036;-80
2021/12/09 08:16:18;;;;;;;29.45;14.50;;;0.70;99.90;;;;;;5070085;28;20115;-80
2021/12/09 08:18:54;;;;;;;32.80;13.73;;;0.80;99.90;;;;;;5069838;28;20044;-80
2021/12/09 08:21:22;;;;;;;26.42;15.07;;;0.80;99.90;;;;;;5068255;28;20068;-79
2021/12/09 08:23:48;;;;;;;31.33;14.90;;;0.90;99.90;;;;;;5069974;28;20492;-80
2021/12/09 08:26:14;;;;;;;31.02;14.07;;;2.50;99.90;;;;;;5053234;28;20055;-80
2021/12/09 08:28:39;;;;;;;26.98;14.38;;;1.40;99.90;;;;;;5069072;28;20076;-80
2021/12/09 08:31:05;;;;;;;22.85;13.00;;;1.70;99.90;;;;;;5068978;28;20048;-80
2021/12/09 08:33:31;;;;;;;23.42;11.52;;;2.10;99.90;;;;;;5035959;28;20468;-80
2021/12/09 08:35:57;;;;;;;19.40;11.38;;;2.50;99.90;;;;;;5052902;28;20040;-80
2021/12/09 08:38:23;;;;;;;19.00;10.45;;;2.80;99.90;;;;;;5052812;28;20455;-80
2021/12/09 08:40:51;;;;;;;18.25;10.10;;;3.20;99.90;;;;;;5050794;28;20037;-80
2021/12/09 08:43:19;;;;;;;18.65;9.23;;;3.50;99.90;;;;;;5069843;28;20511;-80
2021/12/09 08:45:45;;;;;;;18.42;8.27;;;3.90;99.90;;;;;;5069363;28;20047;-80
2021/12/09 08:48:11;;;;;;;14.45;8.30;;;4.20;99.90;;;;;;5069984;28;20028;-80
2021/12/09 08:50:38;;;;;;;14.07;7.85;;;4.30;99.90;;;;;;5069133;28;20131;-80
2021/12/09 08:53:07;;;;;;;13.50;7.68;;;4.50;99.90;;;;;;5036343;28;20429;-80
2021/12/09 08:55:33;;;;;;;15.43;7.97;;;4.50;99.90;;;;;;5052143;28;20063;-80
2021/12/09 08:58:03;;;;;;;12.95;6.65;;;4.90;99.90;;;;;;5069926;28;20033;-80
2021/12/09 09:00:30;;;;;;;15.88;6.95;;;6.10;99.90;;;;;;5034004;28;20044;-80
2021/12/09 09:02:56;;;;;;;15.20;7.38;;;5.10;99.90;;;;;;5036303;28;20044;-80
2021/12/09 09:05:22;;;;;;;12.70;6.43;;;5.00;99.90;;;;;;5052845;28;20408;-80
2021/12/09 09:07:49;;;;;;;14.70;6.75;;;5.10;99.90;;;;;;5069174;28;20071;-80
2021/12/09 09:10:18;;;;;;;15.35;6.40;;;5.30;99.90;;;;;;5069452;28;20122;-80
2021/12/09 09:12:48;;;;;;;14.95;7.22;;;5.60;99.90;;;;;;5068721;28;20054;-81
2021/12/09 09:15:16;;;;;;;13.40;6.43;;;5.70;99.90;;;;;;5046077;28;20111;-81
2021/12/09 09:17:42;;;;;;;10.95;5.95;;;6.00;99.90;;;;;;5069342;28;20033;-80
2021/12/09 09:20:09;;;;;;;;;;;6.40;99.90;;;;;;5069909;28;20056;-80
2021/12/09 09:22:36;;;;;;;10.23;6.17;;;6.60;99.90;;;;;;5036267;28;20379;-80
2021/12/09 09:25:04;;;;;;;12.05;5.55;;;6.30;99.90;;;;;;5069545;28;20102;-80
2021/12/09 09:27:30;;;;;;;12.82;5.80;;;6.70;99.90;;;;;;5050183;28;20465;-80
2021/12/09 09:29:56;;;;;;;11.93;5.60;;;6.80;99.90;;;;;;5069717;28;20084;-80
2021/12/09 09:32:22;;;;;;;13.13;5.97;;;6.90;99.90;;;;;;5069817;28;20466;-80
2021/12/09 09:34:47;;;;;;;8.70;5.45;;;7.00;99.90;;;;;;5052926;28;20048;-80
2021/12/09 09:37:13;;;;;;;11.10;5.38;;;6.90;99.90;;;;;;5069306;28;20527;-80
2021/12/09 09:39:43;;;;;;;9.70;5.55;;;6.80;99.90;;;;;;5068896;28;20479;-80
2021/12/09 09:44:47;;;;;;;14.52;5.93;;;6.90;99.90;;;;;;5072593;28;20488;-80
2021/12/09 09:47:15;;;;;;;12.95;5.88;;;6.80;99.90;;;;;;5073133;28;20404;-80
2021/12/09 09:49:41;;;;;;;12.18;5.20;;;7.10;99.90;;;;;;5056234;28;20044;-80
2021/12/09 09:52:09;;;;;;;9.80;5.32;;;7.60;99.90;;;;;;5073126;28;20488;-80
2021/12/09 09:54:36;;;;;;;11.43;5.18;;;8.00;99.90;;;;;;5055854;28;20044;-78
2021/12/09 09:57:03;;;;;;;10.00;5.03;;;8.40;99.90;;;;;;5055911;28;20178;-79
2021/12/09 09:59:29;;;;;;;13.25;5.50;;;8.80;99.90;;;;;;5072233;28;20039;-79
2021/12/09 10:01:55;;;;;;;10.52;5.65;;;9.10;99.90;;;;;;5072668;28;20039;-79
2021/12/09 10:04:33;;;;;;;9.77;5.47;;;9.30;99.90;;;;;;5039470;28;20041;-79
2021/12/09 10:07:00;;;;;;;11.27;5.30;;;9.10;99.90;;;;;;5068499;28;20561;-80
2021/12/09 10:09:26;;;;;;;10.63;5.20;;;9.30;99.90;;;;;;5056019;28;20037;-79
2021/12/09 10:11:55;;;;;;;9.55;5.05;;;9.50;99.90;;;;;;5055571;28;20128;-79
2021/12/09 10:14:35;;;;;;;9.13;4.35;;;9.50;99.90;;;;;;5072204;28;20115;-80
2021/12/09 10:17:09;;;;;;;9.32;4.72;;;9.60;99.90;;;;;;5071160;28;20123;-80
2021/12/09 10:19:57;;;;;;;10.70;4.70;;;10.00;99.90;;;;;;5069074;28;20039;-79
2021/12/09 10:22:24;;;;;;;;;;;10.10;99.90;;;;;;5070429;28;20450;-80
2021/12/09 10:24:55;;;;;;;11.87;5.03;;;10.40;99.90;;;;;;5072001;28;20386;-79
2021/12/09 10:27:32;;;;;;;11.23;5.00;;;10.20;99.90;;;;;;5055255;28;20037;-79
2021/12/09 10:30:06;;;;;;;9.38;4.55;;;10.40;99.90;;;;;;5087235;28;20105;-79
2021/12/09 10:32:35;;;;;;;12.30;4.75;;;9.80;99.90;;;;;;5069566;28;20056;-79
2021/12/09 10:35:11;;;;;;;11.98;5.00;;;9.90;99.90;;;;;;5055811;28;20047;-79
2021/12/09 10:37:39;;;;;;;8.68;3.85;;;10.00;99.90;;;;;;5071403;28;20041;-79
2021/12/09 10:40:20;;;;;;;7.22;4.28;;;10.00;99.90;;;;;;5071661;28;20071;-79
2021/12/09 10:42:47;;;;;;;9.25;5.07;;;9.80;99.90;;;;;;5070830;28;20040;-79
2021/12/09 10:45:20;;;;;;;9.65;4.40;;;9.60;99.90;;;;;;5071740;28;20047;-79
2021/12/09 10:47:58;;;;;;;12.40;5.07;;;9.00;99.90;;;;;;5054336;28;20032;-80
2021/12/09 10:50:36;;;;;;;8.07;4.88;;;8.30;99.90;;;;;;5087683;28;20429;-81
2021/12/09 10:55:59;;;;;;;12.30;5.40;;;7.40;99.90;;;;;;5068194;28;20043;-80
2021/12/09 10:58:28;;;;;;;8.57;4.90;;;6.80;99.90;;;;;;5063064;28;20032;-81
2021/12/09 11:01:01;;;;;;;10.88;5.82;;;6.40;99.90;;;;;;5070266;28;20041;-81
2021/12/09 11:03:32;;;;;;;12.02;5.80;;;5.90;99.90;;;;;;5049792;28;20119;-80
2021/12/09 11:06:06;;;;;;;12.82;6.32;;;5.90;99.90;;;;;;5054239;28;20054;-81
2021/12/09 11:08:49;;;;;;;10.77;6.05;;;5.80;99.90;;;;;;5069229;28;20036;-80
2021/12/09 11:11:16;;;;;;;9.55;5.18;;;5.50;99.90;;;;;;5054174;28;20041;-81
2021/12/09 11:13:44;;;;;;;13.88;5.95;;;6.10;99.90;;;;;;5053725;28;20399;-80
2021/12/09 11:16:10;;;;;;;11.05;6.28;;;5.50;99.90;;;;;;5071121;28;21134;-80
2021/12/09 11:18:42;;;;;;;;;;;5.30;99.90;;;;;;5071766;28;20048;-80
2021/12/09 11:21:29;;;;;;;14.30;6.60;;;5.00;99.90;;;;;;5054511;28;20274;-80
2021/12/09 11:24:12;;;;;;;13.80;6.90;;;4.80;99.90;;;;;;5051766;28;20113;-80
2021/12/09 11:27:03;;;;;;;12.68;7.00;;;4.80;99.90;;;;;;5065871;28;20288;-80
2021/12/09 11:29:51;;;;;;;14.80;7.72;;;4.60;99.90;;;;;;5068962;28;20056;-79
2021/12/09 11:35:16;;;;;;;15.23;7.15;;;4.50;99.90;;;;;;5070677;28;20510;-80
2021/12/09 11:37:58;;;;;;;11.00;5.88;;;4.60;99.90;;;;;;5069237;28;20090;-80
2021/12/09 11:40:43;;;;;;;11.82;6.00;;;4.60;99.90;;;;;;5101261;28;20036;-80
2021/12/09 11:43:12;;;;;;;17.83;8.32;;;4.60;99.90;;;;;;5070112;28;20182;-80
2021/12/09 11:45:44;;;;;;;17.45;7.05;;;4.50;99.90;;;;;;5068488;28;20135;-80
2021/12/09 11:48:11;;;;;;;16.52;7.65;;;4.60;99.90;;;;;;5053686;28;20032;-81
2021/12/09 11:50:47;;;;;;;19.55;9.63;;;4.70;99.90;;;;;;5070271;28;20686;-80
2021/12/09 11:53:15;;;;;;;17.05;8.48;;;4.80;99.90;;;;;;5068882;28;20480;-80
2021/12/09 11:55:47;;;;;;;23.65;9.48;;;4.60;99.90;;;;;;5070202;28;20129;-80
2021/12/09 12:13:04;;;;;;;20.95;9.32;;;4.50;99.90;;;;;;5068488;28;20516;-80
2021/12/09 12:15:51;;;;;;;18.55;8.38;;;4.50;99.90;;;;;;5070181;28;20098;-80
2021/12/09 12:18:48;;;;;;;19.33;9.07;;;4.40;99.90;;;;;;5052495;28;20028;-80
2021/12/09 12:22:24;;;;;;;19.77;8.98;;;4.40;99.90;;;;;;5070083;28;20043;-80
2021/12/09 12:25:03;;;;;;;20.83;8.70;;;5.30;99.90;;;;;;5064513;28;20054;-80
2021/12/09 12:28:01;;;;;;;19.20;8.98;;;4.40;99.90;;;;;;5068145;28;20543;-81
2021/12/09 12:34:10;;;;;;;17.25;8.18;;;4.40;99.90;;;;;;5098889;28;20462;-81
2021/12/09 12:42:20;;;;;;;21.92;9.63;;;4.40;99.90;;;;;;5067234;28;20776;-81
2021/12/09 12:48:17;;;;;;;15.88;9.00;;;4.50;99.90;;;;;;5067035;28;20063;-81
2021/12/09 12:51:25;;;;;;;16.10;8.30;;;4.40;99.90;;;;;;5038322;28;20029;-81
2021/12/09 12:54:33;;;;;;;14.93;8.23;;;4.40;99.90;;;;;;5051323;28;20040;-81
2021/12/09 12:57:01;;;;;;;16.27;9.00;;;4.50;99.90;;;;;;5083478;28;20037;-81
2021/12/09 12:59:32;;;;;;;17.63;9.25;;;4.60;99.90;;;;;;5069299;28;20043;-81
2021/12/09 13:02:04;;;;;;;17.73;9.27;;;4.50;99.90;;;;;;5069011;28;20093;-81
2021/12/09 13:10:03;;;;;;;18.75;8.63;;;4.50;99.90;;;;;;5068793;28;20090;-81
2021/12/09 13:12:44;;;;;;;19.95;8.80;;;4.70;99.90;;;;;;5068543;28;20128;-81
2021/12/09 13:15:23;;;;;;;21.23;9.07;;;4.60;99.90;;;;;;5068041;28;20037;-81
2021/12/09 13:18:00;;;;;;;20.83;10.45;;;4.50;99.90;;;;;;5068394;28;20052;-80
2021/12/09 13:20:32;;;;;;;21.90;9.95;;;5.70;99.90;;;;;;5055788;28;20120;-81
2021/12/09 13:23:20;;;;;;;18.92;9.45;;;4.40;99.90;;;;;;5072477;28;20137;-81
2021/12/09 13:26:07;;;;;;;;;;;4.40;99.90;;;;;;5072718;28;20049;-81
2021/12/09 13:28:41;;;;;;;18.20;10.27;;;4.40;99.90;;;;;;5072198;28;19926;-80
2021/12/09 13:31:51;;;;;;;20.63;10.63;;;4.40;99.90;;;;;;5072659;28;20530;-81
2021/12/09 13:34:28;;;;;;;19.95;9.63;;;4.40;99.90;;;;;;5072743;28;20558;-81
2021/12/09 13:48:20;;;;;;;25.15;10.18;;;4.50;99.90;;;;;;5059547;28;20047;-81
2021/12/09 13:50:56;;;;;;;26.05;12.05;;;4.40;99.90;;;;;;5085851;28;20036;-81